Time;durP1;ratioP1;P1;durP2;ratioP2;P2;SDS_P1;SDS_P2;PMS_P1;PMS_P2;Temp;Humidity;BMP_temperature;BMP_pressure;BME280_temperature;BME280_humidity;BME280_pressure;Samples;Min_cycle;Max_cycle;Signal;HPM_P1;HPM_P2
2022/07/05 00:01:28;;;;;;;0.65;0.20;;;17.30;61.50;;;;;;4992070;28;20482;-79
2022/07/05 00:03:55;;;;;;;1.92;0.40;;;17.20;61.60;;;;;;4993018;28;20491;-80
2022/07/05 00:06:22;;;;;;;1.23;0.50;;;17.20;61.70;;;;;;4993184;28;20046;-79
2022/07/05 00:08:49;;;;;;;0.70;0.20;;;17.20;61.80;;;;;;4972912;28;20085;-79
2022/07/05 00:11:17;;;;;;;0.65;0.30;;;17.10;61.90;;;;;;4986195;28;20050;-79
2022/07/05 00:13:44;;;;;;;0.50;0.20;;;17.10;62.00;;;;;;4979275;28;20418;-80
2022/07/05 00:16:11;;;;;;;0.50;0.30;;;17.00;62.10;;;;;;4991466;28;20046;-80
2022/07/05 00:18:38;;;;;;;1.00;0.30;;;17.00;62.20;;;;;;5015365;28;20057;-79
2022/07/05 00:21:05;;;;;;;0.70;0.30;;;17.00;62.30;;;;;;4988023;28;20054;-79
2022/07/05 00:23:32;;;;;;;0.70;0.30;;;17.00;62.50;;;;;;4991854;28;20069;-79
2022/07/05 00:25:59;;;;;;;0.90;0.30;;;17.00;62.60;;;;;;4993346;28;20042;-79
2022/07/05 00:28:26;;;;;;;0.90;0.40;;;17.00;62.80;;;;;;4991722;28;20089;-79
2022/07/05 00:30:53;;;;;;;0.50;0.30;;;17.00;62.90;;;;;;4991868;28;20046;-79
2022/07/05 00:33:20;;;;;;;1.23;0.30;;;16.90;63.10;;;;;;4991311;28;20077;-79
2022/07/05 00:35:47;;;;;;;1.27;0.30;;;16.90;63.30;;;;;;4975680;28;20494;-79
2022/07/05 00:38:14;;;;;;;1.38;0.32;;;16.80;63.40;;;;;;4991925;28;20046;-80
2022/07/05 00:40:43;;;;;;;1.67;0.30;;;16.80;63.70;;;;;;4986640;28;20049;-81
2022/07/05 00:43:10;;;;;;;1.42;0.50;;;16.80;63.90;;;;;;4979624;28;20047;-81
2022/07/05 00:45:37;;;;;;;0.73;0.25;;;16.80;64.10;;;;;;4995814;28;20057;-80
2022/07/05 00:48:04;;;;;;;0.30;0.20;;;16.70;64.20;;;;;;4994500;28;20050;-80
2022/07/05 00:50:31;;;;;;;0.40;0.20;;;16.70;64.30;;;;;;4991388;28;20123;-80
2022/07/05 00:52:59;;;;;;;0.73;0.30;;;16.70;64.50;;;;;;4997582;28;20076;-81
2022/07/05 00:55:27;;;;;;;0.90;0.30;;;16.70;64.70;;;;;;4997527;28;20042;-80
2022/07/05 00:57:54;;;;;;;0.60;0.20;;;16.60;64.80;;;;;;4979494;28;20051;-81
2022/07/05 01:00:22;;;;;;;1.00;0.40;;;16.60;64.80;;;;;;5007787;28;20089;-81
2022/07/05 01:02:49;;;;;;;0.98;0.28;;;16.60;65.00;;;;;;4964900;28;20058;-81
2022/07/05 01:05:16;;;;;;;0.50;0.30;;;16.50;65.10;;;;;;4994488;28;20034;-80
2022/07/05 01:07:43;;;;;;;1.52;0.35;;;16.50;65.90;;;;;;4997205;28;20101;-80
2022/07/05 01:10:11;;;;;;;0.45;0.20;;;16.50;65.40;;;;;;4991190;28;20042;-80
2022/07/05 01:12:40;;;;;;;0.60;0.30;;;16.40;65.50;;;;;;4961190;28;20043;-80
2022/07/05 01:15:09;;;;;;;0.73;0.30;;;16.40;65.70;;;;;;5002392;28;20065;-80
2022/07/05 01:17:37;;;;;;;0.75;0.30;;;16.30;65.80;;;;;;4976365;28;20109;-80
2022/07/05 01:20:06;;;;;;;1.33;0.40;;;16.30;66.00;;;;;;4991136;28;20502;-81
2022/07/05 01:22:56;;;;;;;1.38;0.40;;;16.20;66.10;;;;;;4992290;28;20525;-80
2022/07/05 01:25:25;;;;;;;1.95;0.52;;;16.20;66.30;;;;;;4984283;28;20132;-80
2022/07/05 01:27:54;;;;;;;1.10;0.40;;;16.20;66.50;;;;;;4991098;28;20141;-80
2022/07/05 01:30:21;;;;;;;1.48;0.40;;;16.20;66.60;;;;;;5007655;28;20138;-80
2022/07/05 01:32:49;;;;;;;0.80;0.40;;;16.20;66.70;;;;;;4974742;28;20391;-80
2022/07/05 01:35:20;;;;;;;0.90;0.40;;;16.10;66.80;;;;;;4975186;28;20038;-80
2022/07/05 01:37:50;;;;;;;2.00;0.50;;;16.10;66.90;;;;;;5007165;28;20046;-80
2022/07/05 01:40:18;;;;;;;1.10;0.50;;;16.10;67.00;;;;;;5002431;28;20038;-80
2022/07/05 01:42:46;;;;;;;1.13;0.50;;;16.00;67.10;;;;;;4993783;28;20427;-80
2022/07/05 01:45:38;;;;;;;1.35;0.40;;;16.00;67.20;;;;;;5009045;28;20502;-80
2022/07/05 01:48:14;;;;;;;1.05;0.30;;;16.00;67.40;;;;;;4996793;28;20133;-80
2022/07/05 01:51:00;;;;;;;0.68;0.38;;;16.00;67.60;;;;;;4994473;28;20054;-81
2022/07/05 01:53:31;;;;;;;0.82;0.35;;;16.00;67.70;;;;;;5007511;28;20449;-81
2022/07/05 01:56:03;;;;;;;2.10;0.40;;;15.90;67.80;;;;;;4994679;28;20536;-81
2022/07/05 01:58:31;;;;;;;1.13;0.40;;;15.90;67.90;;;;;;4981495;28;20387;-81
2022/07/05 02:00:59;;;;;;;0.85;0.30;;;15.80;68.00;;;;;;5005643;28;20494;-81
2022/07/05 02:03:26;;;;;;;1.00;0.30;;;15.80;68.10;;;;;;4978796;28;20034;-80
2022/07/05 02:06:14;;;;;;;0.75;0.30;;;15.80;68.20;;;;;;4981244;28;20035;-80
2022/07/05 02:08:44;;;;;;;2.70;0.40;;;15.80;68.20;;;;;;4984543;28;20105;-80
2022/07/05 02:11:11;;;;;;;0.88;0.30;;;15.80;68.40;;;;;;4970369;28;20046;-80
2022/07/05 02:13:38;;;;;;;0.52;0.20;;;15.80;68.40;;;;;;4992019;28;20395;-80
2022/07/05 02:16:06;;;;;;;0.75;0.30;;;15.80;68.50;;;;;;4987149;28;20042;-81
2022/07/05 02:18:34;;;;;;;0.70;0.30;;;15.70;68.60;;;;;;4990290;28;20111;-81
2022/07/05 02:21:01;;;;;;;1.60;0.40;;;15.70;68.80;;;;;;4999958;28;20034;-81
2022/07/05 02:23:28;;;;;;;0.73;0.30;;;15.70;69.00;;;;;;5007324;28;20046;-81
2022/07/05 02:25:57;;;;;;;1.23;0.38;;;15.70;69.70;;;;;;4989096;28;20042;-80
2022/07/05 02:28:24;;;;;;;0.90;0.30;;;15.70;69.20;;;;;;4999089;28;20084;-81
2022/07/05 02:30:52;;;;;;;1.08;0.40;;;15.70;69.20;;;;;;4979672;28;20046;-80
2022/07/05 02:33:19;;;;;;;0.85;0.40;;;15.60;69.20;;;;;;4994111;28;20112;-80
2022/07/05 02:35:48;;;;;;;0.88;0.40;;;15.60;69.30;;;;;;4981166;28;20502;-80
2022/07/05 02:38:15;;;;;;;0.80;0.40;;;15.60;69.70;;;;;;4992243;28;20078;-80
2022/07/05 02:40:42;;;;;;;0.63;0.30;;;15.60;69.40;;;;;;5010715;28;20050;-79
2022/07/05 02:43:09;;;;;;;0.82;0.40;;;15.60;69.60;;;;;;4983583;28;20053;-80
2022/07/05 02:45:36;;;;;;;1.02;0.40;;;15.60;69.70;;;;;;4973423;28;20047;-80
2022/07/05 02:48:05;;;;;;;0.85;0.40;;;15.70;69.80;;;;;;4993528;28;20399;-80
2022/07/05 02:50:33;;;;;;;1.13;0.40;;;15.70;69.70;;;;;;4998089;28;20070;-80
2022/07/05 02:53:00;;;;;;;0.85;0.38;;;15.80;69.70;;;;;;4984251;28;20046;-80
2022/07/05 02:55:27;;;;;;;0.68;0.30;;;15.80;69.80;;;;;;4998326;28;20136;-80
2022/07/05 02:57:56;;;;;;;2.60;0.38;;;15.80;69.80;;;;;;4964211;28;20117;-80
2022/07/05 03:00:23;;;;;;;0.95;0.70;;;15.80;69.80;;;;;;4961995;28;20450;-80
2022/07/05 03:02:51;;;;;;;1.92;0.30;;;15.90;69.90;;;;;;4996938;28;20502;-80
2022/07/05 03:05:20;;;;;;;1.20;0.30;;;15.90;69.90;;;;;;4996547;28;20039;-79
2022/07/05 03:07:54;;;;;;;1.75;0.30;;;15.90;69.90;;;;;;5003734;28;20478;-79
2022/07/05 03:10:22;;;;;;;0.75;0.40;;;15.90;70.00;;;;;;4998600;28;20140;-79
2022/07/05 03:12:50;;;;;;;1.30;0.30;;;16.00;70.00;;;;;;4982009;28;20364;-79
2022/07/05 03:15:18;;;;;;;1.17;0.20;;;16.00;70.00;;;;;;4995380;28;20414;-79
2022/07/05 03:17:45;;;;;;;0.47;0.20;;;16.00;70.00;;;;;;4994702;28;20050;-79
2022/07/05 03:20:15;;;;;;;0.90;0.20;;;16.10;70.00;;;;;;5002299;28;20054;-79
2022/07/05 03:22:42;;;;;;;0.50;0.20;;;16.10;70.00;;;;;;4979169;28;20132;-79
2022/07/05 03:25:10;;;;;;;0.35;0.20;;;16.10;69.90;;;;;;4982682;28;20486;-79
2022/07/05 03:27:39;;;;;;;1.23;0.30;;;16.10;70.00;;;;;;4981577;28;20156;-80
2022/07/05 03:30:07;;;;;;;0.88;0.30;;;16.10;70.00;;;;;;4995511;28;20145;-79
2022/07/05 03:32:36;;;;;;;1.77;0.45;;;16.20;70.70;;;;;;4979149;28;20050;-79
2022/07/05 03:35:06;;;;;;;0.95;0.28;;;16.20;70.00;;;;;;4984945;28;20060;-79
2022/07/05 03:37:37;;;;;;;0.80;0.30;;;16.20;70.10;;;;;;4980017;28;20050;-81
2022/07/05 03:40:05;;;;;;;1.42;0.40;;;16.20;70.20;;;;;;4991384;28;20072;-80
2022/07/05 03:42:34;;;;;;;0.52;0.30;;;16.20;70.20;;;;;;5002183;28;20049;-80
2022/07/05 03:45:03;;;;;;;0.98;0.30;;;16.30;70.30;;;;;;5000553;28;20125;-81
2022/07/05 03:47:31;;;;;;;1.40;0.40;;;16.30;70.40;;;;;;4994144;28;20041;-81
2022/07/05 03:49:58;;;;;;;0.80;0.22;;;16.30;70.40;;;;;;4979253;28;20557;-80
2022/07/05 03:52:25;;;;;;;1.63;0.30;;;16.40;70.30;;;;;;4964830;28;20554;-80
2022/07/05 03:54:56;;;;;;;0.75;0.30;;;16.40;70.20;;;;;;5011545;28;20397;-80
2022/07/05 03:57:23;;;;;;;0.52;0.30;;;16.40;70.20;;;;;;4977425;28;20101;-80
2022/07/05 03:59:51;;;;;;;1.35;0.38;;;16.40;70.10;;;;;;4997443;28;20049;-80
2022/07/05 04:02:19;;;;;;;1.08;0.30;;;16.40;70.10;;;;;;4992569;28;20038;-80
2022/07/05 04:04:46;;;;;;;1.08;0.40;;;16.50;70.20;;;;;;5008260;28;20390;-81
2022/07/05 04:07:13;;;;;;;1.20;0.30;;;16.50;70.30;;;;;;4998943;28;20045;-81
2022/07/05 04:09:41;;;;;;;0.98;0.30;;;16.60;70.40;;;;;;4977206;28;20043;-81
2022/07/05 04:12:10;;;;;;;1.27;0.47;;;16.60;70.40;;;;;;5007603;28;20506;-81
2022/07/05 04:14:39;;;;;;;1.08;0.40;;;16.60;70.50;;;;;;4999260;28;20083;-81
2022/07/05 04:17:06;;;;;;;1.15;0.40;;;16.60;70.50;;;;;;5001297;28;20049;-79
2022/07/05 04:19:34;;;;;;;0.80;0.40;;;16.70;70.50;;;;;;4991289;28;20042;-80
2022/07/05 04:22:01;;;;;;;1.85;0.63;;;16.70;70.40;;;;;;4990288;28;20497;-81
2022/07/05 04:24:29;;;;;;;0.80;0.30;;;16.70;70.30;;;;;;4991084;28;20505;-81
2022/07/05 04:26:56;;;;;;;1.30;0.40;;;16.80;70.30;;;;;;5004544;28;20129;-80
2022/07/05 04:29:24;;;;;;;1.30;0.40;;;16.80;70.30;;;;;;4996654;28;20129;-80
2022/07/05 04:31:51;;;;;;;1.45;0.50;;;16.80;70.40;;;;;;4994106;28;20112;-80
2022/07/05 04:34:21;;;;;;;1.38;0.55;;;16.90;70.50;;;;;;4985435;28;20077;-85
2022/07/05 04:36:50;;;;;;;1.00;0.43;;;16.90;70.50;;;;;;4988931;28;20438;-81
2022/07/05 04:39:20;;;;;;;2.75;0.50;;;17.00;71.30;;;;;;4991469;28;20050;-83
2022/07/05 04:41:57;;;;;;;1.63;0.60;;;17.00;70.50;;;;;;4992805;28;20038;-84
2022/07/05 04:44:24;;;;;;;2.03;0.60;;;17.00;70.50;;;;;;4986223;28;20035;-84
2022/07/05 04:46:52;;;;;;;1.65;0.70;;;17.10;70.40;;;;;;4988221;28;20407;-83
2022/07/05 04:49:19;;;;;;;1.27;0.63;;;17.10;70.50;;;;;;4973547;28;20034;-83
2022/07/05 04:51:49;;;;;;;1.33;0.80;;;17.20;70.50;;;;;;4988537;28;20521;-83
2022/07/05 04:54:17;;;;;;;1.73;0.70;;;17.20;70.50;;;;;;4991465;28;20395;-83
2022/07/05 04:56:45;;;;;;;1.08;0.40;;;17.30;70.50;;;;;;4991290;28;20509;-82
2022/07/05 04:59:12;;;;;;;0.80;0.40;;;17.30;70.50;;;;;;4991409;28;20038;-83
2022/07/05 05:01:39;;;;;;;1.45;0.65;;;17.40;70.40;;;;;;4992228;28;20066;-83
2022/07/05 05:04:06;;;;;;;1.58;0.43;;;17.40;70.30;;;;;;4985849;28;20068;-81
2022/07/05 05:06:33;;;;;;;1.20;0.60;;;17.50;70.30;;;;;;4975293;28;20039;-82
2022/07/05 05:09:00;;;;;;;1.75;0.77;;;17.50;70.20;;;;;;4981574;28;20096;-83
2022/07/05 05:11:27;;;;;;;2.38;0.85;;;17.50;70.10;;;;;;4981911;28;20053;-82
2022/07/05 05:13:55;;;;;;;2.95;1.00;;;17.60;70.10;;;;;;4975243;28;20046;-84
2022/07/05 05:16:22;;;;;;;2.97;1.02;;;17.70;70.10;;;;;;4991126;28;20042;-80
2022/07/05 05:18:49;;;;;;;3.25;1.30;;;17.70;70.00;;;;;;5009954;28;20463;-83
2022/07/05 05:21:16;;;;;;;2.53;1.40;;;17.80;69.90;;;;;;4970701;28;20495;-83
2022/07/05 05:23:44;;;;;;;2.88;1.63;;;17.80;69.80;;;;;;5000178;28;20566;-84
2022/07/05 05:26:11;;;;;;;3.35;1.40;;;17.80;69.80;;;;;;4982007;28;20105;-83
2022/07/05 05:28:38;;;;;;;3.90;1.38;;;17.90;69.80;;;;;;4983539;28;20045;-83
2022/07/05 05:31:08;;;;;;;2.88;1.42;;;17.90;69.70;;;;;;4988925;28;20467;-82
2022/07/05 05:33:36;;;;;;;2.63;1.55;;;17.90;69.60;;;;;;4947241;28;20055;-82
2022/07/05 05:36:04;;;;;;;3.05;1.80;;;18.00;69.60;;;;;;5000498;28;20038;-82
2022/07/05 05:38:31;;;;;;;3.70;1.88;;;18.00;69.60;;;;;;4994949;28;20050;-83
2022/07/05 05:40:58;;;;;;;5.07;1.90;;;18.00;69.50;;;;;;5002592;28;20053;-83
2022/07/05 05:43:25;;;;;;;2.85;1.48;;;18.00;70.20;;;;;;4997380;28;20104;-82
2022/07/05 05:45:52;;;;;;;2.80;1.55;;;18.00;69.50;;;;;;4993875;28;20487;-83
2022/07/05 05:48:20;;;;;;;2.83;1.50;;;18.00;69.50;;;;;;4994272;28;20046;-83
2022/07/05 05:50:47;;;;;;;2.50;1.33;;;18.00;69.50;;;;;;4994309;28;20031;-83
2022/07/05 05:53:15;;;;;;;2.85;0.90;;;18.00;69.40;;;;;;4994259;28;20038;-83
2022/07/05 05:55:42;;;;;;;2.95;1.85;;;18.10;69.30;;;;;;4994583;28;20046;-82
2022/07/05 05:58:18;;;;;;;3.55;1.58;;;18.20;69.30;;;;;;4988838;28;20053;-83
2022/07/05 06:00:48;;;;;;;2.90;1.55;;;18.20;69.20;;;;;;5003264;28;20042;-83
2022/07/05 06:03:16;;;;;;;2.63;1.20;;;18.20;69.10;;;;;;4986896;28;20046;-82
2022/07/05 06:05:43;;;;;;;3.13;1.40;;;18.30;69.10;;;;;;4999030;28;20451;-83
2022/07/05 06:08:11;;;;;;;2.83;1.48;;;18.40;69.10;;;;;;5002154;28;20038;-82
2022/07/05 06:10:38;;;;;;;2.83;1.20;;;18.40;69.00;;;;;;5004831;28;20077;-83
2022/07/05 06:13:08;;;;;;;3.33;1.85;;;18.40;68.90;;;;;;4998066;28;20506;-83
2022/07/05 06:15:37;;;;;;;4.15;1.80;;;18.50;69.00;;;;;;4982730;28;20121;-83
2022/07/05 06:18:05;;;;;;;3.30;2.03;;;18.50;68.90;;;;;;4994266;28;20537;-83
2022/07/05 06:20:34;;;;;;;3.30;1.73;;;18.50;68.90;;;;;;4994078;28;20061;-83
2022/07/05 06:23:03;;;;;;;2.80;1.45;;;18.50;68.90;;;;;;4998550;28;20096;-83
2022/07/05 06:25:31;;;;;;;3.90;1.38;;;18.60;68.90;;;;;;4980172;28;20053;-83
2022/07/05 06:28:04;;;;;;;3.90;1.85;;;18.60;68.90;;;;;;4995648;28;20046;-83
2022/07/05 06:30:33;;;;;;;3.92;1.63;;;18.60;68.80;;;;;;4979593;28;20078;-83
2022/07/05 06:33:00;;;;;;;3.70;2.17;;;18.70;68.70;;;;;;4993980;28;20414;-82
2022/07/05 06:35:28;;;;;;;3.15;1.60;;;18.80;68.60;;;;;;4995132;28;20077;-83
2022/07/05 06:38:07;;;;;;;4.00;1.15;;;18.80;68.50;;;;;;4996658;28;20046;-83
2022/07/05 06:40:37;;;;;;;2.05;1.38;;;18.90;68.40;;;;;;4997923;28;20100;-83
2022/07/05 06:43:09;;;;;;;5.00;1.60;;;18.90;68.30;;;;;;4977778;28;20116;-83
2022/07/05 06:46:00;;;;;;;3.60;1.40;;;18.90;68.40;;;;;;4991931;28;20058;-83
2022/07/05 06:48:27;;;;;;;4.13;2.10;;;18.80;68.40;;;;;;4962861;28;20046;-83
2022/07/05 06:50:53;;;;;;;4.28;2.10;;;18.80;68.50;;;;;;5006829;28;20054;-84
2022/07/05 06:53:20;;;;;;;5.53;2.30;;;18.80;68.50;;;;;;5000290;28;20065;-83
2022/07/05 06:55:47;;;;;;;5.07;2.60;;;18.80;68.50;;;;;;5009737;28;20093;-84
2022/07/05 06:58:22;;;;;;;3.92;2.10;;;18.80;68.70;;;;;;4993431;28;20153;-82
2022/07/05 07:00:49;;;;;;;3.90;1.77;;;18.80;68.80;;;;;;4993391;28;20058;-81
2022/07/05 07:03:36;;;;;;;3.13;1.73;;;18.90;68.70;;;;;;4993069;28;20121;-81
2022/07/05 07:06:23;;;;;;;3.65;1.67;;;19.00;68.50;;;;;;4987684;28;20066;-80
2022/07/05 07:11:35;;;;;;;3.25;1.60;;;19.30;68.00;;;;;;5009678;28;20390;-81
2022/07/05 07:14:02;;;;;;;3.95;1.98;;;19.30;67.70;;;;;;4977085;28;20054;-81
2022/07/05 07:16:29;;;;;;;4.22;1.88;;;19.40;67.60;;;;;;5018251;28;20069;-83
2022/07/05 07:18:57;;;;;;;3.55;1.90;;;19.50;67.50;;;;;;4977129;28;20169;-83
2022/07/05 07:21:42;;;;;;;1.80;1.25;;;19.50;67.50;;;;;;4981821;28;20137;-82
2022/07/05 07:24:10;;;;;;;2.63;1.60;;;19.60;67.40;;;;;;4977504;28;20077;-83
2022/07/05 07:29:23;;;;;;;3.38;1.67;;;19.70;67.10;;;;;;5009239;28;20498;-82
2022/07/05 07:31:50;;;;;;;3.63;1.42;;;19.80;66.80;;;;;;4977175;28;20047;-83
2022/07/05 07:34:19;;;;;;;2.67;1.20;;;19.90;66.80;;;;;;4999023;28;20046;-87
2022/07/05 07:36:47;;;;;;;2.58;1.05;;;19.90;66.40;;;;;;4994022;28;20129;-86
2022/07/05 07:39:14;;;;;;;2.65;1.25;;;20.00;66.30;;;;;;4993395;28;20521;-87
2022/07/05 07:41:44;;;;;;;4.32;1.60;;;20.20;66.10;;;;;;4990025;28;20133;-87
2022/07/05 07:44:11;;;;;;;3.17;1.40;;;20.40;65.70;;;;;;4993225;28;20046;-86
2022/07/05 07:46:41;;;;;;;2.28;1.58;;;20.60;65.20;;;;;;4986708;28;20137;-86
2022/07/05 07:49:12;;;;;;;3.47;1.20;;;20.80;64.80;;;;;;4995663;28;20686;-85
2022/07/05 07:51:40;;;;;;;1.55;0.85;;;20.90;64.40;;;;;;4992623;28;20049;-81
2022/07/05 07:54:09;;;;;;;1.75;0.80;;;20.90;64.40;;;;;;4989440;28;20263;-81
2022/07/05 07:56:36;;;;;;;2.97;1.08;;;21.00;64.30;;;;;;4989899;28;20042;-81
2022/07/05 07:59:03;;;;;;;2.33;1.02;;;21.10;64.30;;;;;;4990023;28;20042;-81
2022/07/05 08:01:31;;;;;;;1.88;0.80;;;21.10;63.90;;;;;;4973393;28;20148;-81
2022/07/05 08:03:58;;;;;;;3.20;1.10;;;21.10;63.90;;;;;;5007439;28;20513;-80
2022/07/05 08:06:25;;;;;;;2.50;1.30;;;21.20;63.80;;;;;;4993776;28;20125;-80
2022/07/05 08:08:52;;;;;;;3.08;1.20;;;21.20;63.40;;;;;;4983077;28;20126;-81
2022/07/05 08:11:19;;;;;;;2.85;0.98;;;21.20;63.30;;;;;;4989844;28;20058;-81
2022/07/05 08:13:47;;;;;;;1.90;1.00;;;21.30;63.20;;;;;;4957897;28;20494;-81
2022/07/05 08:16:14;;;;;;;1.65;0.70;;;21.40;63.20;;;;;;4981581;28;20046;-80
2022/07/05 08:21:31;;;;;;;1.50;0.70;;;21.50;62.20;;;;;;4994068;28;20157;-81
2022/07/05 08:24:00;;;;;;;1.90;1.10;;;21.50;62.50;;;;;;4988083;28;20051;-80
2022/07/05 08:26:27;;;;;;;2.38;1.23;;;21.50;61.50;;;;;;4966252;28;20042;-81
2022/07/05 08:28:55;;;;;;;1.77;1.08;;;21.50;61.60;;;;;;4989778;28;20120;-80
2022/07/05 08:31:40;;;;;;;2.78;1.00;;;21.40;61.20;;;;;;4995352;28;20038;-80
2022/07/05 08:34:08;;;;;;;2.90;0.90;;;21.40;61.30;;;;;;4986072;28;20045;-81
2022/07/05 08:36:35;;;;;;;2.33;0.80;;;21.50;61.50;;;;;;4998046;28;20056;-81
2022/07/05 08:39:03;;;;;;;2.47;1.02;;;21.60;61.30;;;;;;4957792;28;20077;-80
2022/07/05 08:41:35;;;;;;;2.70;1.10;;;21.80;61.10;;;;;;5009649;28;20434;-81
2022/07/05 08:44:03;;;;;;;3.35;1.00;;;21.80;60.80;;;;;;4995683;28;20474;-81
2022/07/05 08:46:31;;;;;;;1.77;0.90;;;21.80;60.50;;;;;;4983973;28;20097;-80
2022/07/05 08:49:01;;;;;;;2.72;1.10;;;21.80;60.50;;;;;;4998310;28;20104;-81
2022/07/05 08:51:38;;;;;;;1.88;0.88;;;21.70;60.20;;;;;;4988527;28;20062;-81
2022/07/05 08:54:07;;;;;;;3.53;1.08;;;21.60;60.30;;;;;;4980637;28;20069;-81
2022/07/05 08:56:35;;;;;;;2.72;0.82;;;21.70;60.40;;;;;;4988844;28;20058;-80
2022/07/05 08:59:22;;;;;;;3.58;1.15;;;21.90;60.30;;;;;;4984203;28;20453;-81
2022/07/05 09:01:49;;;;;;;2.60;0.75;;;22.10;59.90;;;;;;4960493;28;20050;-81
2022/07/05 09:04:58;;;;;;;1.58;0.70;;;22.20;59.70;;;;;;4988651;28;20063;-81
2022/07/05 09:07:27;;;;;;;1.73;0.70;;;22.40;59.30;;;;;;4978268;28;20039;-82
2022/07/05 09:10:04;;;;;;;2.10;0.82;;;22.30;59.20;;;;;;4985118;28;20047;-84
2022/07/05 09:12:31;;;;;;;1.10;0.60;;;22.20;59.30;;;;;;5005625;28;20042;-82
2022/07/05 09:15:01;;;;;;;1.73;0.47;;;22.20;59.50;;;;;;4988290;28;20054;-82
2022/07/05 09:17:29;;;;;;;1.33;0.50;;;22.30;59.10;;;;;;4985549;28;20047;-82
2022/07/05 09:20:12;;;;;;;0.90;0.50;;;22.50;58.80;;;;;;4978428;28;20097;-81
2022/07/05 09:22:53;;;;;;;1.75;0.80;;;22.80;58.30;;;;;;4995273;28;20050;-80
2022/07/05 09:25:28;;;;;;;2.25;0.70;;;22.90;57.70;;;;;;4974896;28;20697;-82
2022/07/05 09:28:04;;;;;;;1.20;0.60;;;22.80;56.90;;;;;;4996191;28;20065;-82
2022/07/05 09:30:38;;;;;;;0.98;0.63;;;22.70;56.90;;;;;;4975209;28;20398;-82
2022/07/05 09:33:16;;;;;;;0.95;0.40;;;22.60;56.40;;;;;;4988894;28;20042;-82
2022/07/05 09:35:59;;;;;;;1.70;0.60;;;22.40;56.40;;;;;;4988995;28;20051;-82
2022/07/05 09:38:28;;;;;;;1.00;0.57;;;22.30;56.40;;;;;;4988940;28;20069;-83
2022/07/05 09:41:02;;;;;;;0.90;0.50;;;22.30;56.60;;;;;;4991206;28;20085;-83
2022/07/05 09:43:29;;;;;;;1.05;0.40;;;22.30;56.50;;;;;;4972479;28;20046;-83
2022/07/05 09:45:59;;;;;;;0.98;0.30;;;22.30;56.50;;;;;;4972988;28;20050;-84
2022/07/05 09:48:28;;;;;;;0.90;0.50;;;22.20;56.30;;;;;;4973638;28;20137;-83
2022/07/05 09:51:11;;;;;;;0.95;0.30;;;21.90;56.30;;;;;;4960177;28;20542;-84
2022/07/05 09:53:59;;;;;;;0.90;0.50;;;21.70;56.50;;;;;;4977325;28;20053;-84
2022/07/05 09:56:30;;;;;;;2.08;0.50;;;21.50;56.70;;;;;;4963567;28;20153;-84
2022/07/05 09:59:16;;;;;;;2.17;0.70;;;21.40;56.90;;;;;;4987204;28;20409;-84
2022/07/05 10:01:43;;;;;;;3.72;1.50;;;21.40;57.00;;;;;;4986811;28;20074;-83
2022/07/05 10:04:11;;;;;;;3.35;1.40;;;21.40;57.20;;;;;;4991203;28;20053;-84
2022/07/05 10:06:38;;;;;;;5.47;1.85;;;21.50;57.40;;;;;;5009369;28;20078;-83
2022/07/05 10:09:05;;;;;;;3.28;1.58;;;21.50;57.50;;;;;;4994615;28;20042;-79
2022/07/05 10:11:36;;;;;;;2.80;1.65;;;21.60;57.60;;;;;;4994742;28;20050;-80
2022/07/05 10:14:08;;;;;;;4.15;1.50;;;21.80;57.60;;;;;;4995045;28;20426;-83
2022/07/05 10:16:35;;;;;;;2.83;1.35;;;21.90;57.50;;;;;;5004963;28;20069;-82
2022/07/05 10:19:03;;;;;;;3.15;1.52;;;22.10;57.30;;;;;;4994154;28;20046;-83
2022/07/05 10:21:31;;;;;;;2.65;0.73;;;22.10;57.30;;;;;;5007483;28;20042;-83
2022/07/05 10:24:21;;;;;;;2.00;0.75;;;22.10;57.30;;;;;;4980843;28;20718;-82
2022/07/05 10:26:48;;;;;;;2.22;1.27;;;22.30;57.00;;;;;;4994167;28;20096;-82
2022/07/05 10:29:16;;;;;;;1.83;1.00;;;22.40;56.60;;;;;;4994281;28;20038;-83
2022/07/05 10:31:44;;;;;;;1.63;0.60;;;22.50;56.50;;;;;;4994310;28;20038;-83
2022/07/05 10:34:13;;;;;;;2.58;0.98;;;22.60;56.60;;;;;;4977750;28;20445;-83
2022/07/05 10:37:00;;;;;;;0.95;0.50;;;22.70;56.50;;;;;;4996694;28;20049;-84
2022/07/05 10:39:28;;;;;;;2.33;0.60;;;23.00;56.20;;;;;;4999392;28;20061;-83
2022/07/05 10:42:01;;;;;;;1.58;1.00;;;23.20;56.10;;;;;;5005758;28;20413;-82
2022/07/05 10:44:53;;;;;;;2.10;0.77;;;23.40;55.60;;;;;;4991514;28;20064;-82
2022/07/05 10:47:27;;;;;;;2.28;0.60;;;23.50;55.50;;;;;;4993680;28;20118;-82
2022/07/05 10:50:03;;;;;;;2.80;0.60;;;23.70;55.30;;;;;;4993985;28;20046;-83
2022/07/05 10:52:30;;;;;;;0.93;0.40;;;24.00;54.60;;;;;;4992451;28;20549;-83
2022/07/05 10:55:19;;;;;;;1.00;0.60;;;24.20;54.40;;;;;;4994170;28;20046;-83
2022/07/05 10:58:28;;;;;;;1.92;0.90;;;24.50;53.80;;;;;;4999193;28;20406;-83
2022/07/05 11:01:20;;;;;;;2.10;1.00;;;24.60;52.60;;;;;;4991827;28;20055;-83
2022/07/05 11:04:00;;;;;;;1.85;0.80;;;24.80;52.80;;;;;;4985203;28;20054;-83
2022/07/05 11:06:52;;;;;;;2.72;0.80;;;24.90;52.30;;;;;;5001586;28;20062;-83
2022/07/05 11:09:22;;;;;;;1.52;0.75;;;25.10;51.80;;;;;;4996113;28;20039;-81
2022/07/05 11:11:52;;;;;;;2.50;1.10;;;25.00;51.50;;;;;;4993702;28;20101;-86
2022/07/05 11:14:44;;;;;;;2.00;1.10;;;24.90;51.00;;;;;;4989210;28;20054;-82
2022/07/05 11:17:25;;;;;;;2.42;0.98;;;25.00;51.10;;;;;;4987955;28;20043;-85
2022/07/05 11:20:30;;;;;;;1.80;0.70;;;25.10;50.70;;;;;;4992749;28;20051;-86
2022/07/05 11:23:12;;;;;;;2.53;0.80;;;25.10;50.60;;;;;;4993697;28;20233;-86
2022/07/05 11:25:44;;;;;;;2.40;0.65;;;25.10;51.00;;;;;;4999716;28;20054;-87
2022/07/05 11:28:16;;;;;;;2.30;0.80;;;25.00;50.50;;;;;;4995600;28;20562;-90
2022/07/05 11:30:54;;;;;;;;;;;24.90;51.00;;;;;;4993674;28;20438;-88
2022/07/05 11:33:42;;;;;;;1.13;0.60;;;24.90;50.10;;;;;;5001097;28;19922;-83
2022/07/05 11:36:26;;;;;;;1.73;0.70;;;24.90;50.60;;;;;;5003348;28;20100;-87
2022/07/05 11:39:16;;;;;;;1.35;0.60;;;24.90;50.60;;;;;;4992852;28;20054;-81
2022/07/05 11:41:45;;;;;;;1.35;0.50;;;24.60;50.70;;;;;;4992914;28;20046;-81
2022/07/05 11:44:13;;;;;;;1.95;0.50;;;24.40;50.70;;;;;;4976573;28;20569;-84
2022/07/05 11:46:43;;;;;;;0.95;0.40;;;24.50;50.60;;;;;;4992937;28;20038;-82
2022/07/05 11:49:20;;;;;;;1.80;0.70;;;24.80;50.60;;;;;;4994306;28;20066;-82
2022/07/05 11:52:01;;;;;;;1.15;0.50;;;25.00;48.90;;;;;;4992634;28;20042;-82
2022/07/05 11:54:30;;;;;;;0.70;0.30;;;25.00;48.70;;;;;;4984611;28;20105;-84
2022/07/05 11:56:59;;;;;;;0.80;0.35;;;25.00;48.50;;;;;;5009100;28;20074;-85
2022/07/05 11:59:27;;;;;;;0.80;0.30;;;24.90;48.40;;;;;;4976585;28;20100;-84
2022/07/05 12:01:55;;;;;;;0.30;0.20;;;24.70;48.10;;;;;;4994446;28;20459;-82
2022/07/05 12:04:30;;;;;;;0.40;0.20;;;24.80;48.40;;;;;;4984334;28;20057;-82
2022/07/05 12:06:58;;;;;;;1.48;0.43;;;25.10;47.60;;;;;;4999121;28;20050;-80
2022/07/05 12:09:28;;;;;;;1.33;0.32;;;25.20;47.70;;;;;;4980450;28;20073;-81
2022/07/05 12:14:51;;;;;;;2.20;0.57;;;25.00;45.70;;;;;;5008715;28;20062;-83
2022/07/05 12:17:20;;;;;;;0.75;0.30;;;24.60;46.90;;;;;;4975746;28;20096;-82
2022/07/05 12:19:53;;;;;;;1.02;0.30;;;24.30;46.60;;;;;;4991321;28;20053;-83
2022/07/05 12:22:36;;;;;;;0.40;0.20;;;24.80;46.60;;;;;;4991608;28;20046;-82
2022/07/05 12:25:09;;;;;;;0.50;0.20;;;25.00;46.40;;;;;;4988811;28;20408;-83
2022/07/05 12:27:38;;;;;;;0.43;0.20;;;24.90;46.40;;;;;;4982600;28;20057;-84
2022/07/05 12:30:12;;;;;;;0.30;0.10;;;24.70;46.70;;;;;;5009713;28;20060;-85
2022/07/05 12:33:05;;;;;;;2.00;0.40;;;24.50;47.40;;;;;;4992259;28;20038;-85
2022/07/05 12:35:51;;;;;;;0.88;0.30;;;24.80;47.00;;;;;;4978327;28;20065;-83
2022/07/05 12:38:20;;;;;;;0.98;0.30;;;25.70;45.50;;;;;;4998096;28;20043;-87
2022/07/05 12:40:59;;;;;;;1.63;0.30;;;26.30;44.80;;;;;;4990305;28;20486;-84
2022/07/05 12:43:27;;;;;;;0.60;0.20;;;26.80;44.40;;;;;;5006506;28;20050;-85
2022/07/05 12:46:05;;;;;;;0.50;0.20;;;27.20;44.00;;;;;;4983023;28;20046;-82
2022/07/05 12:48:38;;;;;;;2.05;0.22;;;26.80;44.10;;;;;;4991864;28;20046;-86
2022/07/05 12:51:10;;;;;;;0.82;0.20;;;26.80;44.50;;;;;;4993262;28;20379;-83
2022/07/05 12:59:40;;;;;;;1.60;0.40;;;25.90;44.30;;;;;;4992783;28;20585;-85
2022/07/05 13:02:07;;;;;;;1.55;0.20;;;25.20;45.50;;;;;;4993908;28;20041;-87
2022/07/05 13:04:35;;;;;;;1.15;0.20;;;24.90;45.80;;;;;;5000957;28;20495;-90
2022/07/05 13:07:03;;;;;;;1.10;0.20;;;24.60;46.30;;;;;;4977333;28;20038;-89
2022/07/05 13:09:52;;;;;;;1.52;0.40;;;24.40;46.20;;;;;;4999204;28;20038;-92
2022/07/05 13:12:23;;;;;;;2.42;0.30;;;24.50;46.10;;;;;;5005286;28;20043;-89
2022/07/05 13:14:52;;;;;;;0.87;0.30;;;25.30;45.40;;;;;;4984576;28;20061;-86
2022/07/05 13:20:45;;;;;;;1.17;0.50;;;27.10;43.50;;;;;;4997833;28;20046;-90
2022/07/05 13:23:12;;;;;;;0.52;0.13;;;27.40;42.60;;;;;;4993363;28;20097;-86
2022/07/05 13:25:39;;;;;;;1.65;0.20;;;27.10;42.70;;;;;;4960329;28;20130;-94
2022/07/05 13:28:06;;;;;;;1.88;0.20;;;26.60;43.40;;;;;;4993731;28;20117;-90